< < Back
Terminal Aerodrome Forecast


Current Version              Previous Versions:   1  2  3  4  5  6  7  8  9  

Terminal Aerodrome Forecast

122
FTUS44 KBMX 271139
TAFANB
TAF
KANB 271139Z 2712/2812 VRB03KT P6SM SCT010 OVC015
     FM271500 14005KT P6SM BKN025
     FM272100 13008KT P6SM -SHRA VCTS FEW025 BKN035CB
      TEMPO 2723/2802 2SM TSRA SCT015 BKN025CB
     FM280400 VRB03KT P6SM BKN120=



Latest METAR

439
SAUS70 KWBC 271200 RRD
MTRANB
METAR KANB 271153Z AUTO 06003KT 10SM FEW017 21/18 A3022 RMK AO2 SLP226
70003 T02060183 10206 20189 58001


USA.gov is the U.S. government's official web portal to all federal, state and local government web resources and services.